Time;durP1;ratioP1;P1;durP2;ratioP2;P2;SDS_P1;SDS_P2;PMS_P1;PMS_P2;Temp;Humidity;BMP_temperature;BMP_pressure;BME280_temperature;BME280_humidity;BME280_pressure;Samples;Min_cycle;Max_cycle;Signal;HPM_P1;HPM_P2
2022/10/19 00:01:17;;;;;;;13.48;6.40;;;;;;;;;;4881362;29;20104;-62
2022/10/19 00:03:44;;;;;;;12.40;7.28;;;;;;;;;;4879208;29;20048;-62
2022/10/19 00:06:11;;;;;;;10.32;7.95;;;;;;;;;;4880869;29;20517;-61
2022/10/19 00:08:37;;;;;;;10.90;7.10;;;;;;;;;;4880879;29;20049;-61
2022/10/19 00:11:04;;;;;;;9.38;7.07;;;;;;;;;;4880901;29;20049;-61
2022/10/19 00:13:30;;;;;;;10.88;8.27;;;;;;;;;;4880085;29;20076;-61
2022/10/19 00:15:57;;;;;;;10.23;7.30;;;;;;;;;;4880762;29;20379;-61
2022/10/19 00:18:23;;;;;;;10.93;7.53;;;;;;;;;;4880663;29;20045;-62
2022/10/19 00:20:49;;;;;;;11.13;6.80;;;;;;;;;;4879550;29;20451;-62
2022/10/19 00:23:16;;;;;;;9.13;6.65;;;;;;;;;;4879939;29;20044;-61
2022/10/19 00:25:42;;;;;;;9.27;6.68;;;;;;;;;;4880529;29;20590;-61
2022/10/19 00:28:08;;;;;;;7.72;6.10;;;;;;;;;;4880533;29;20463;-61
2022/10/19 00:30:36;;;;;;;8.05;5.43;;;;;;;;;;4880374;29;20048;-62
2022/10/19 00:33:03;;;;;;;9.63;6.95;;;;;;;;;;4879834;29;20077;-61
2022/10/19 00:35:29;;;;;;;8.20;6.03;;;;;;;;;;4879076;29;20467;-62
2022/10/19 00:37:56;;;;;;;9.60;6.65;;;;;;;;;;4880387;29;20045;-61
2022/10/19 00:40:22;;;;;;;8.93;5.97;;;;;;;;;;4879744;29;20041;-61
2022/10/19 00:42:53;;;;;;;6.63;5.88;;;;;;;;;;4878311;29;20052;-61
2022/10/19 00:45:19;;;;;;;8.13;5.95;;;;;;;;;;4880366;29;20460;-61
2022/10/19 00:47:46;;;;;;;7.93;6.20;;;;;;;;;;4880110;29;20041;-61
2022/10/19 00:50:13;;;;;;;8.77;6.85;;;;;;;;;;4880024;29;20045;-61
2022/10/19 00:52:40;;;;;;;9.70;6.90;;;;;;;;;;4879570;29;20093;-62
2022/10/19 00:55:07;;;;;;;9.25;6.25;;;;;;;;;;4880180;29;20049;-62
2022/10/19 00:57:33;;;;;;;11.52;6.22;;;;;;;;;;4880001;29;20502;-62
2022/10/19 01:00:01;;;;;;;10.00;5.75;;;;;;;;;;4879770;29;20045;-62
2022/10/19 01:02:28;;;;;;;8.13;6.40;;;;;;;;;;4879340;29;20498;-61
2022/10/19 01:04:54;;;;;;;9.52;7.18;;;;;;;;;;4879939;29;20562;-62
2022/10/19 01:07:22;;;;;;;9.02;6.40;;;;;;;;;;4879792;29;20093;-61
2022/10/19 01:09:48;;;;;;;10.10;6.85;;;;;;;;;;4879713;29;20530;-62
2022/10/19 01:12:21;;;;;;;12.98;6.82;;;;;;;;;;4879101;29;20067;-61
2022/10/19 01:15:02;;;;;;;10.05;6.18;;;;;;;;;;4879722;29;20045;-62
2022/10/19 01:17:28;;;;;;;11.30;6.72;;;;;;;;;;4879710;29;20494;-61
2022/10/19 01:20:13;;;;;;;9.23;6.80;;;;;;;;;;4879390;29;20450;-61
2022/10/19 01:22:46;;;;;;;10.55;7.10;;;;;;;;;;4878964;29;20081;-61
2022/10/19 01:25:31;;;;;;;9.88;6.90;;;;;;;;;;4879526;29;20085;-61
2022/10/19 01:27:57;;;;;;;12.82;7.88;;;;;;;;;;4879236;29;20041;-61
2022/10/19 01:30:30;;;;;;;14.07;7.10;;;;;;;;;;4879264;29;20057;-61
2022/10/19 01:33:11;;;;;;;10.70;6.75;;;;;;;;;;4878738;29;20562;-61
2022/10/19 01:35:41;;;;;;;11.15;7.40;;;;;;;;;;4878229;29;20045;-61
2022/10/19 01:38:15;;;;;;;15.45;7.95;;;;;;;;;;4879188;29;20049;-61
2022/10/19 01:40:41;;;;;;;;;;;;;;;;;;4879552;29;20120;-61
2022/10/19 01:43:11;;;;;;;15.00;9.25;;;;;;;;;;4878538;29;19956;-61
2022/10/19 01:45:41;;;;;;;17.80;9.48;;;;;;;;;;4879277;29;20120;-61
2022/10/19 01:48:37;;;;;;;13.73;9.15;;;;;;;;;;4879060;29;20060;-61
2022/10/19 01:51:03;;;;;;;17.15;10.68;;;;;;;;;;4866139;29;20422;-61
2022/10/19 01:53:36;;;;;;;20.05;11.65;;;;;;;;;;4877865;29;20048;-61
2022/10/19 01:56:04;;;;;;;25.23;11.57;;;;;;;;;;4879018;29;20041;-61
2022/10/19 01:58:32;;;;;;;19.45;11.73;;;;;;;;;;4879007;29;20505;-62
2022/10/19 02:01:00;;;;;;;21.83;13.20;;;;;;;;;;4878810;29;20056;-61
2022/10/19 02:03:27;;;;;;;24.77;13.70;;;;;;;;;;4878369;29;20049;-61
2022/10/19 02:05:54;;;;;;;22.35;13.93;;;;;;;;;;4878785;29;20463;-61
2022/10/19 02:08:26;;;;;;;23.55;14.60;;;;;;;;;;4877600;29;20045;-61
2022/10/19 02:10:53;;;;;;;33.67;13.98;;;;;;;;;;4878926;29;20049;-62
2022/10/19 02:13:20;;;;;;;21.20;13.45;;;;;;;;;;4878306;29;20399;-62
2022/10/19 02:15:49;;;;;;;23.92;15.48;;;;;;;;;;4878595;29;20101;-61
2022/10/19 02:18:17;;;;;;;31.73;16.80;;;;;;;;;;4878545;29;20057;-61
2022/10/19 02:20:44;;;;;;;33.75;18.42;;;;;;;;;;4877095;29;20082;-62
2022/10/19 02:23:12;;;;;;;30.38;18.35;;;;;;;;;;4878002;29;20574;-61
2022/10/19 02:25:38;;;;;;;30.13;17.60;;;;;;;;;;4878709;29;20053;-62
2022/10/19 02:28:05;;;;;;;37.58;19.75;;;;;;;;;;4878517;29;20097;-61
2022/10/19 02:30:31;;;;;;;48.72;20.83;;;;;;;;;;4878442;29;20040;-62
2022/10/19 02:32:58;;;;;;;40.08;21.00;;;;;;;;;;4878404;29;20097;-61
2022/10/19 02:35:24;;;;;;;38.65;20.92;;;;;;;;;;4879079;29;20045;-62
2022/10/19 02:37:51;;;;;;;36.55;21.10;;;;;;;;;;4879066;29;20052;-61
2022/10/19 02:40:17;;;;;;;38.28;21.35;;;;;;;;;;4878315;29;20053;-62
2022/10/19 02:42:50;;;;;;;32.03;18.73;;;;;;;;;;4876727;29;20102;-62
2022/10/19 02:45:22;;;;;;;33.08;19.45;;;;;;;;;;4878422;29;20053;-61
2022/10/19 02:47:51;;;;;;;33.33;19.75;;;;;;;;;;4878402;29;20483;-62
2022/10/19 02:50:18;;;;;;;34.67;19.85;;;;;;;;;;4878546;29;20097;-62
2022/10/19 02:52:44;;;;;;;33.95;20.30;;;;;;;;;;4878377;29;20056;-61
2022/10/19 02:55:10;;;;;;;37.13;19.75;;;;;;;;;;4879131;29;20562;-62
2022/10/19 02:57:37;;;;;;;30.38;18.30;;;;;;;;;;4878240;29;20117;-62
2022/10/19 03:00:04;;;;;;;34.40;19.00;;;;;;;;;;4878303;29;20744;-62
2022/10/19 03:02:31;;;;;;;34.47;18.45;;;;;;;;;;4877779;29;20053;-61
2022/10/19 03:04:57;;;;;;;31.33;18.83;;;;;;;;;;4880714;29;20494;-61
2022/10/19 03:07:24;;;;;;;31.88;18.20;;;;;;;;;;4881911;29;20093;-62
2022/10/19 03:09:50;;;;;;;35.08;19.15;;;;;;;;;;4881890;29;20049;-62
2022/10/19 03:12:17;;;;;;;35.80;20.15;;;;;;;;;;4881158;29;20053;-61
2022/10/19 03:14:43;;;;;;;41.05;21.45;;;;;;;;;;4881945;29;20079;-62
2022/10/19 03:17:09;;;;;;;39.25;20.92;;;;;;;;;;4881775;29;20502;-62
2022/10/19 03:19:36;;;;;;;37.10;21.30;;;;;;;;;;4881747;29;20132;-62
2022/10/19 03:22:03;;;;;;;41.28;22.50;;;;;;;;;;4881219;29;20053;-62
2022/10/19 03:24:30;;;;;;;49.65;22.77;;;;;;;;;;4881570;29;20041;-62
2022/10/19 03:26:56;;;;;;;46.35;24.35;;;;;;;;;;4880567;29;20053;-62
2022/10/19 03:29:23;;;;;;;44.33;23.25;;;;;;;;;;4881376;29;20045;-62
2022/10/19 03:31:49;;;;;;;44.25;23.00;;;;;;;;;;4881425;29;20102;-62
2022/10/19 03:34:15;;;;;;;46.40;22.58;;;;;;;;;;4879837;29;20053;-62
2022/10/19 03:36:42;;;;;;;47.55;23.05;;;;;;;;;;4881433;29;20467;-62
2022/10/19 03:39:13;;;;;;;45.40;22.98;;;;;;;;;;4881419;29;20045;-62
2022/10/19 03:41:39;;;;;;;44.17;23.65;;;;;;;;;;4881536;29;20053;-62
2022/10/19 03:44:07;;;;;;;41.78;22.27;;;;;;;;;;4880835;29;20068;-62
2022/10/19 03:46:34;;;;;;;48.08;22.08;;;;;;;;;;4881382;29;20554;-61
2022/10/19 03:49:01;;;;;;;46.28;23.67;;;;;;;;;;4881261;29;20089;-62
2022/10/19 03:51:28;;;;;;;45.22;22.67;;;;;;;;;;4881082;29;20048;-62
2022/10/19 03:53:56;;;;;;;44.55;22.20;;;;;;;;;;4880415;29;20045;-62
2022/10/19 03:56:24;;;;;;;47.35;23.65;;;;;;;;;;4881241;29;20109;-62
2022/10/19 03:58:52;;;;;;;48.10;22.95;;;;;;;;;;4881406;29;20080;-62
2022/10/19 04:01:22;;;;;;;45.38;22.25;;;;;;;;;;5319988;24;20343;-64
2022/10/19 04:04:12;;;;;;;47.67;22.27;;;;;;;;;;4879021;29;20051;-63
2022/10/19 04:06:40;;;;;;;43.38;23.35;;;;;;;;;;4870197;29;20061;-63
2022/10/19 04:09:07;;;;;;;50.92;23.40;;;;;;;;;;4879729;29;20097;-64
2022/10/19 04:11:34;;;;;;;47.90;23.17;;;;;;;;;;4879739;29;20041;-64
2022/10/19 04:14:00;;;;;;;49.83;22.70;;;;;;;;;;4878991;29;20408;-63
2022/10/19 04:16:28;;;;;;;46.13;23.02;;;;;;;;;;4878901;29;20517;-61
2022/10/19 04:18:55;;;;;;;48.38;22.67;;;;;;;;;;4880990;29;20044;-65
2022/10/19 04:21:26;;;;;;;49.40;23.55;;;;;;;;;;4879529;29;20053;-63
2022/10/19 04:23:55;;;;;;;45.38;23.65;;;;;;;;;;4878730;29;20505;-63
2022/10/19 04:26:22;;;;;;;48.35;23.90;;;;;;;;;;4863846;29;20049;-64
2022/10/19 04:28:48;;;;;;;47.58;23.67;;;;;;;;;;4879591;29;20044;-62
2022/10/19 04:31:15;;;;;;;52.45;23.80;;;;;;;;;;4879252;29;20041;-63
2022/10/19 04:33:41;;;;;;;44.53;23.98;;;;;;;;;;4878950;29;20053;-63
2022/10/19 04:36:09;;;;;;;48.50;23.98;;;;;;;;;;4880586;29;20435;-62
2022/10/19 04:38:36;;;;;;;44.28;24.13;;;;;;;;;;4880428;29;20059;-63
2022/10/19 04:41:04;;;;;;;45.13;24.42;;;;;;;;;;4880340;29;20124;-64
2022/10/19 04:43:30;;;;;;;42.08;22.65;;;;;;;;;;4863040;29;20057;-63
2022/10/19 04:46:00;;;;;;;40.63;22.05;;;;;;;;;;4866496;29;20053;-64
2022/10/19 04:48:27;;;;;;;40.78;22.05;;;;;;;;;;4883401;29;20413;-65
2022/10/19 04:50:54;;;;;;;40.33;22.05;;;;;;;;;;4882501;29;20097;-65
2022/10/19 04:53:21;;;;;;;41.20;22.73;;;;;;;;;;4882610;29;20594;-65
2022/10/19 04:55:47;;;;;;;39.30;21.13;;;;;;;;;;4883361;29;20405;-65
2022/10/19 04:58:13;;;;;;;37.35;20.88;;;;;;;;;;4882995;29;20049;-65
2022/10/19 05:00:40;;;;;;;40.35;22.58;;;;;;;;;;4882234;29;20041;-65
2022/10/19 05:03:06;;;;;;;40.15;22.50;;;;;;;;;;4882365;29;20057;-65
2022/10/19 05:05:33;;;;;;;38.38;20.95;;;;;;;;;;4883416;29;20109;-65
2022/10/19 05:07:59;;;;;;;38.03;21.08;;;;;;;;;;4880884;29;20502;-64
2022/10/19 05:10:26;;;;;;;41.05;22.17;;;;;;;;;;4879967;29;20041;-64
2022/10/19 05:12:53;;;;;;;39.70;21.75;;;;;;;;;;4878024;29;20056;-65
2022/10/19 05:15:19;;;;;;;37.33;20.83;;;;;;;;;;4878900;29;20101;-64
2022/10/19 05:17:46;;;;;;;39.03;21.00;;;;;;;;;;4879766;29;20047;-64
2022/10/19 05:20:12;;;;;;;43.22;21.67;;;;;;;;;;4878528;29;20057;-64
2022/10/19 05:22:39;;;;;;;42.90;22.48;;;;;;;;;;4877719;29;20053;-63
2022/10/19 05:25:08;;;;;;;40.45;21.70;;;;;;;;;;4894137;29;20053;-62
2022/10/19 05:27:34;;;;;;;43.03;21.67;;;;;;;;;;4879513;29;20048;-63
2022/10/19 05:30:02;;;;;;;37.22;21.35;;;;;;;;;;4879478;29;20498;-63
2022/10/19 05:32:28;;;;;;;39.50;21.52;;;;;;;;;;4877616;29;20047;-63
2022/10/19 05:34:54;;;;;;;43.85;21.60;;;;;;;;;;4878270;29;20562;-66
2022/10/19 05:37:21;;;;;;;41.92;22.27;;;;;;;;;;4879503;29;20510;-63
2022/10/19 05:39:47;;;;;;;40.05;22.02;;;;;;;;;;4878431;29;20506;-62
2022/10/19 05:42:14;;;;;;;45.60;22.25;;;;;;;;;;4877634;29;20049;-63
2022/10/19 05:44:40;;;;;;;44.92;23.02;;;;;;;;;;4879265;29;20049;-64
2022/10/19 05:47:07;;;;;;;45.08;22.80;;;;;;;;;;4879285;29;20080;-64
2022/10/19 05:49:33;;;;;;;40.35;21.77;;;;;;;;;;4877976;29;20045;-64
2022/10/19 05:51:59;;;;;;;42.97;23.38;;;;;;;;;;4877824;29;20215;-63
2022/10/19 05:54:26;;;;;;;45.83;22.35;;;;;;;;;;4878086;29;20493;-64
2022/10/19 05:56:54;;;;;;;46.08;22.13;;;;;;;;;;4877962;29;20553;-64
2022/10/19 05:59:20;;;;;;;43.20;22.27;;;;;;;;;;4878991;29;20063;-64
2022/10/19 06:01:47;;;;;;;45.05;23.98;;;;;;;;;;4877621;29;20055;-65
2022/10/19 06:04:13;;;;;;;45.30;23.05;;;;;;;;;;4877250;29;20502;-64
2022/10/19 06:06:43;;;;;;;45.80;22.67;;;;;;;;;;4877683;29;20486;-64
2022/10/19 06:09:09;;;;;;;45.28;23.23;;;;;;;;;;4879017;29;20509;-64
2022/10/19 06:11:38;;;;;;;42.15;21.92;;;;;;;;;;4878816;29;20101;-64
2022/10/19 06:14:06;;;;;;;40.03;21.10;;;;;;;;;;4877197;29;20095;-63
2022/10/19 06:16:32;;;;;;;47.03;21.67;;;;;;;;;;4878925;29;20120;-64
2022/10/19 06:18:59;;;;;;;46.78;21.52;;;;;;;;;;4878816;29;20371;-64
2022/10/19 06:21:26;;;;;;;39.28;21.77;;;;;;;;;;4879953;29;20069;-66
2022/10/19 06:23:54;;;;;;;47.20;21.73;;;;;;;;;;4881574;29;20097;-66
2022/10/19 06:26:21;;;;;;;45.22;20.23;;;;;;;;;;4881352;29;20061;-66
2022/10/19 06:28:48;;;;;;;43.88;21.38;;;;;;;;;;4879838;29;20120;-64
2022/10/19 06:31:15;;;;;;;47.45;22.23;;;;;;;;;;4878560;29;20494;-64
2022/10/19 06:33:43;;;;;;;46.47;21.95;;;;;;;;;;4878050;29;20057;-65
2022/10/19 06:36:13;;;;;;;44.97;23.65;;;;;;;;;;4878500;29;20052;-64
2022/10/19 06:38:40;;;;;;;42.45;21.30;;;;;;;;;;4878152;29;20502;-65
2022/10/19 06:41:07;;;;;;;42.65;20.55;;;;;;;;;;4878692;29;20554;-64
2022/10/19 06:43:34;;;;;;;41.00;18.30;;;;;;;;;;4877986;29;20510;-64
2022/10/19 06:46:04;;;;;;;37.95;18.48;;;;;;;;;;4878539;29;20049;-64
2022/10/19 06:48:31;;;;;;;38.47;17.90;;;;;;;;;;4878681;29;20064;-64
2022/10/19 06:50:58;;;;;;;42.10;18.42;;;;;;;;;;4877499;29;20052;-62
2022/10/19 06:53:25;;;;;;;38.25;18.13;;;;;;;;;;4877679;29;20048;-62
2022/10/19 06:55:51;;;;;;;40.63;18.50;;;;;;;;;;4878551;29;20045;-62
2022/10/19 06:58:18;;;;;;;41.35;19.70;;;;;;;;;;4878310;29;20045;-62
2022/10/19 07:00:44;;;;;;;38.28;18.08;;;;;;;;;;4877351;29;20057;-61
2022/10/19 07:03:11;;;;;;;35.90;16.40;;;;;;;;;;4877504;29;20049;-63
2022/10/19 07:05:37;;;;;;;32.35;15.35;;;;;;;;;;4878309;29;20049;-62
2022/10/19 07:08:04;;;;;;;37.88;15.73;;;;;;;;;;4879232;29;20525;-61
2022/10/19 07:10:30;;;;;;;32.88;15.75;;;;;;;;;;4877349;29;20501;-62
2022/10/19 07:12:57;;;;;;;33.08;16.23;;;;;;;;;;4876608;29;20053;-63
2022/10/19 07:15:23;;;;;;;35.35;16.95;;;;;;;;;;4861906;29;20056;-64
2022/10/19 07:17:51;;;;;;;40.53;18.63;;;;;;;;;;4878456;29;20077;-63
2022/10/19 07:20:17;;;;;;;36.83;18.50;;;;;;;;;;4878512;29;20041;-64
2022/10/19 07:22:44;;;;;;;34.13;16.35;;;;;;;;;;4876487;29;20056;-63
2022/10/19 07:25:10;;;;;;;38.03;17.50;;;;;;;;;;4878522;29;20052;-64
2022/10/19 07:27:39;;;;;;;31.05;16.90;;;;;;;;;;4878298;29;20049;-63
2022/10/19 07:30:06;;;;;;;31.77;16.55;;;;;;;;;;4905015;23;20048;-62
2022/10/19 07:32:32;;;;;;;32.00;16.63;;;;;;;;;;4896088;29;20076;-62
2022/10/19 07:34:59;;;;;;;30.65;15.43;;;;;;;;;;4896578;29;20493;-61
2022/10/19 07:37:25;;;;;;;32.70;17.35;;;;;;;;;;4896500;29;20111;-61
2022/10/19 07:39:51;;;;;;;31.27;15.88;;;;;;;;;;4889293;29;20487;-60
2022/10/19 07:42:18;;;;;;;31.65;15.73;;;;;;;;;;4877159;29;20052;-62
2022/10/19 07:44:44;;;;;;;34.40;15.43;;;;;;;;;;4877885;29;20067;-61
2022/10/19 07:47:11;;;;;;;32.38;16.77;;;;;;;;;;4876431;29;20053;-61
2022/10/19 07:49:37;;;;;;;29.95;15.70;;;;;;;;;;4876565;29;20494;-61
2022/10/19 07:52:04;;;;;;;30.42;15.70;;;;;;;;;;4879547;29;20093;-61
2022/10/19 07:54:30;;;;;;;29.40;15.98;;;;;;;;;;4880213;29;20597;-62
2022/10/19 07:56:57;;;;;;;33.88;17.92;;;;;;;;;;4881106;29;20041;-62
2022/10/19 07:59:23;;;;;;;33.08;17.42;;;;;;;;;;4881075;29;20045;-62
2022/10/19 08:01:49;;;;;;;36.65;18.02;;;;;;;;;;4879857;29;20089;-62
2022/10/19 08:04:16;;;;;;;36.45;18.92;;;;;;;;;;4880473;29;20048;-63
2022/10/19 08:07:03;;;;;;;36.83;18.27;;;;;;;;;;4879812;29;20522;-63
2022/10/19 08:09:29;;;;;;;35.47;19.05;;;;;;;;;;4880677;29;20490;-62
2022/10/19 08:12:15;;;;;;;30.85;16.23;;;;;;;;;;4880136;29;20049;-63
2022/10/19 08:14:42;;;;;;;33.30;16.85;;;;;;;;;;4880718;29;20041;-65
2022/10/19 08:17:10;;;;;;;34.05;17.25;;;;;;;;;;4880660;29;20053;-62
2022/10/19 08:19:41;;;;;;;27.23;16.10;;;;;;;;;;4880660;29;20048;-63
2022/10/19 08:22:08;;;;;;;34.45;17.35;;;;;;;;;;4880018;29;20106;-63
2022/10/19 08:24:34;;;;;;;34.25;16.73;;;;;;;;;;4880506;29;20085;-63
2022/10/19 08:27:01;;;;;;;28.42;16.40;;;;;;;;;;4880527;29;20122;-63
2022/10/19 08:29:27;;;;;;;28.20;16.15;;;;;;;;;;4879139;29;20517;-64
2022/10/19 08:31:57;;;;;;;24.13;15.23;;;;;;;;;;4880447;29;20049;-63
2022/10/19 08:34:24;;;;;;;27.88;15.45;;;;;;;;;;4880454;29;20045;-64
2022/10/19 08:36:50;;;;;;;29.63;15.70;;;;;;;;;;4880574;29;20494;-62
2022/10/19 08:39:17;;;;;;;23.45;13.80;;;;;;;;;;4880253;29;20053;-62
2022/10/19 08:41:52;;;;;;;19.40;12.02;;;;;;;;;;4879166;29;20041;-62
2022/10/19 08:44:25;;;;;;;23.13;12.35;;;;;;;;;;4878415;29;20057;-62
2022/10/19 08:46:51;;;;;;;18.77;10.75;;;;;;;;;;4880497;29;20113;-63
2022/10/19 08:49:19;;;;;;;21.80;11.77;;;;;;;;;;4878915;29;20096;-63
2022/10/19 08:51:48;;;;;;;17.92;11.27;;;;;;;;;;4880103;29;20041;-63
2022/10/19 08:54:16;;;;;;;17.70;11.82;;;;;;;;;;4879443;29;20080;-63
2022/10/19 08:57:04;;;;;;;20.88;12.57;;;;;;;;;;4878971;29;20045;-63
2022/10/19 08:59:38;;;;;;;19.70;11.65;;;;;;;;;;4879919;29;20049;-63
2022/10/19 09:02:28;;;;;;;25.55;13.15;;;;;;;;;;4877678;29;20057;-63
2022/10/19 09:04:57;;;;;;;22.48;12.98;;;;;;;;;;4876826;29;20064;-63
2022/10/19 09:07:36;;;;;;;22.92;13.52;;;;;;;;;;4879821;29;20052;-63
2022/10/19 09:10:08;;;;;;;25.13;15.43;;;;;;;;;;4879787;29;20044;-63
2022/10/19 09:12:43;;;;;;;22.35;13.90;;;;;;;;;;4879459;29;20565;-63
2022/10/19 09:15:33;;;;;;;23.60;13.90;;;;;;;;;;4879787;29;20045;-63
2022/10/19 09:18:00;;;;;;;24.63;13.73;;;;;;;;;;4876915;29;20063;-63
2022/10/19 09:20:35;;;;;;;22.38;13.93;;;;;;;;;;4879559;29;20041;-63
2022/10/19 09:23:40;;;;;;;23.10;14.13;;;;;;;;;;4877779;29;20060;-63
2022/10/19 09:26:13;;;;;;;24.92;14.05;;;;;;;;;;4858547;29;20098;-63
2022/10/19 09:29:12;;;;;;;26.20;13.68;;;;;;;;;;4858506;29;20057;-63
2022/10/19 09:31:39;;;;;;;24.17;13.52;;;;;;;;;;4843386;29;20065;-63
2022/10/19 09:34:20;;;;;;;21.10;13.23;;;;;;;;;;4878695;29;20053;-63
2022/10/19 09:36:51;;;;;;;20.10;12.68;;;;;;;;;;4879350;29;20068;-62
2022/10/19 09:39:17;;;;;;;22.63;12.82;;;;;;;;;;4881857;29;20418;-62
2022/10/19 09:41:50;;;;;;;19.35;12.38;;;;;;;;;;4883371;29;20049;-64
2022/10/19 09:44:16;;;;;;;21.40;11.18;;;;;;;;;;4881289;29;20076;-64
2022/10/19 09:46:51;;;;;;;16.45;11.32;;;;;;;;;;4880982;29;20418;-62
2022/10/19 09:49:36;;;;;;;17.25;10.98;;;;;;;;;;4881537;29;20072;-63
2022/10/19 09:52:02;;;;;;;17.55;10.77;;;;;;;;;;4881493;29;20490;-63
2022/10/19 09:54:34;;;;;;;14.90;10.13;;;;;;;;;;4881815;29;20056;-64
2022/10/19 09:57:00;;;;;;;14.75;10.18;;;;;;;;;;4881459;29;20081;-63
2022/10/19 09:59:28;;;;;;;16.25;11.48;;;;;;;;;;4880105;29;20045;-63
2022/10/19 10:01:59;;;;;;;17.80;12.40;;;;;;;;;;4880926;29;20047;-64
2022/10/19 10:04:26;;;;;;;16.23;11.18;;;;;;;;;;4879066;29;20041;-64
2022/10/19 10:06:53;;;;;;;18.83;12.85;;;;;;;;;;4877890;29;20502;-64
2022/10/19 10:09:25;;;;;;;22.30;12.48;;;;;;;;;;4879172;29;20077;-63
2022/10/19 10:11:52;;;;;;;17.23;11.65;;;;;;;;;;4878941;29;20063;-64
2022/10/19 10:14:23;;;;;;;18.67;12.32;;;;;;;;;;4876382;29;20044;-63
2022/10/19 10:17:03;;;;;;;19.23;13.38;;;;;;;;;;4878750;29;20049;-61
2022/10/19 10:19:30;;;;;;;19.65;13.45;;;;;;;;;;4877614;29;20052;-63
2022/10/19 10:21:58;;;;;;;19.92;12.55;;;;;;;;;;4877366;29;20048;-63
2022/10/19 10:24:29;;;;;;;21.58;13.77;;;;;;;;;;4877406;29;20056;-64
2022/10/19 10:26:59;;;;;;;17.70;12.32;;;;;;;;;;4878751;29;20049;-64
2022/10/19 10:29:27;;;;;;;20.58;13.68;;;;;;;;;;4878263;29;20041;-62
2022/10/19 10:31:56;;;;;;;21.23;13.45;;;;;;;;;;4878423;29;20044;-62
2022/10/19 10:34:43;;;;;;;18.13;12.52;;;;;;;;;;4878095;29;20049;-62
2022/10/19 10:37:24;;;;;;;19.02;12.70;;;;;;;;;;4877306;29;20168;-63
2022/10/19 10:39:55;;;;;;;19.80;13.15;;;;;;;;;;4865403;29;20098;-62
2022/10/19 10:42:28;;;;;;;19.13;12.25;;;;;;;;;;4858032;29;20467;-63
2022/10/19 10:44:55;;;;;;;17.73;12.98;;;;;;;;;;4859960;29;20045;-63
2022/10/19 10:47:22;;;;;;;20.90;13.50;;;;;;;;;;4859970;29;20068;-63
2022/10/19 10:49:56;;;;;;;20.20;13.88;;;;;;;;;;4859555;29;20041;-63
2022/10/19 10:52:24;;;;;;;18.75;13.23;;;;;;;;;;4859122;29;20424;-63
2022/10/19 10:55:09;;;;;;;18.35;12.98;;;;;;;;;;4859718;29;20041;-63
2022/10/19 10:57:37;;;;;;;21.73;13.38;;;;;;;;;;4859694;29;20050;-64
2022/10/19 11:00:11;;;;;;;15.25;12.10;;;;;;;;;;4859488;29;20045;-63
2022/10/19 11:02:37;;;;;;;16.42;12.68;;;;;;;;;;4858211;29;20056;-63
2022/10/19 11:05:16;;;;;;;19.15;13.57;;;;;;;;;;4858689;29;20506;-63
2022/10/19 11:07:44;;;;;;;17.80;12.07;;;;;;;;;;4859689;29;20105;-63
2022/10/19 11:10:18;;;;;;;18.35;13.10;;;;;;;;;;4859492;29;20050;-63
2022/10/19 11:12:48;;;;;;;19.58;13.07;;;;;;;;;;4859133;29;20109;-63
2022/10/19 11:15:19;;;;;;;19.88;12.90;;;;;;;;;;4859595;29;20041;-63
2022/10/19 11:17:52;;;;;;;23.20;14.52;;;;;;;;;;4859674;29;20041;-63
2022/10/19 11:20:20;;;;;;;20.88;13.90;;;;;;;;;;4858518;29;20105;-65
2022/10/19 11:22:53;;;;;;;20.83;15.10;;;;;;;;;;4859035;29;20061;-62
2022/10/19 11:25:25;;;;;;;22.23;16.10;;;;;;;;;;4861077;29;20114;-62
2022/10/19 11:28:10;;;;;;;21.77;15.57;;;;;;;;;;4861899;29;20053;-63
2022/10/19 11:30:46;;;;;;;22.42;15.90;;;;;;;;;;4862941;29;20060;-63
2022/10/19 11:33:21;;;;;;;23.58;15.80;;;;;;;;;;4862578;29;20049;-63
2022/10/19 11:35:53;;;;;;;18.50;14.32;;;;;;;;;;4862991;29;20094;-63
2022/10/19 11:38:22;;;;;;;21.33;15.13;;;;;;;;;;4862936;29;20121;-63
2022/10/19 11:41:04;;;;;;;21.02;16.30;;;;;;;;;;4862741;29;20064;-63
2022/10/19 11:44:01;;;;;;;20.23;14.23;;;;;;;;;;4862329;29;20045;-63
2022/10/19 11:46:37;;;;;;;20.33;15.15;;;;;;;;;;4862242;29;20049;-64
2022/10/19 11:49:22;;;;;;;17.98;12.48;;;;;;;;;;4863035;29;20049;-63
2022/10/19 11:52:00;;;;;;;17.15;12.25;;;;;;;;;;4862493;29;20101;-63
2022/10/19 11:54:47;;;;;;;15.90;11.85;;;;;;;;;;4862788;29;20033;-62
2022/10/19 11:57:15;;;;;;;17.27;12.38;;;;;;;;;;4861175;29;20056;-63
2022/10/19 11:59:45;;;;;;;17.38;12.30;;;;;;;;;;4862371;29;20045;-62
2022/10/19 12:02:11;;;;;;;17.67;12.70;;;;;;;;;;4861776;29;20105;-62
2022/10/19 12:04:45;;;;;;;19.05;13.15;;;;;;;;;;4861086;29;20526;-62
2022/10/19 12:07:20;;;;;;;17.52;13.05;;;;;;;;;;4862381;29;20106;-63
2022/10/19 12:09:47;;;;;;;17.67;13.30;;;;;;;;;;4862174;29;20053;-61
2022/10/19 12:12:23;;;;;;;20.92;14.70;;;;;;;;;;4861673;29;20490;-62
2022/10/19 12:14:51;;;;;;;17.90;14.05;;;;;;;;;;4862237;29;20383;-62
2022/10/19 12:17:23;;;;;;;17.73;13.77;;;;;;;;;;4860936;29;20049;-62
2022/10/19 12:19:51;;;;;;;19.75;13.77;;;;;;;;;;4845769;29;20053;-62
2022/10/19 12:22:20;;;;;;;19.25;13.05;;;;;;;;;;4860352;29;20049;-62
2022/10/19 12:24:47;;;;;;;21.15;14.70;;;;;;;;;;4862242;29;20113;-62
2022/10/19 12:27:15;;;;;;;20.77;14.55;;;;;;;;;;4862305;29;20169;-61
2022/10/19 12:29:43;;;;;;;21.55;13.93;;;;;;;;;;4861630;29;20041;-62
2022/10/19 12:32:12;;;;;;;19.10;14.15;;;;;;;;;;4861740;29;20049;-62
2022/10/19 12:34:38;;;;;;;19.83;14.30;;;;;;;;;;4862087;29;20074;-62
2022/10/19 12:37:12;;;;;;;18.30;13.25;;;;;;;;;;4859919;29;20041;-62
2022/10/19 12:39:44;;;;;;;19.40;12.98;;;;;;;;;;4861792;29;20046;-62
2022/10/19 12:42:11;;;;;;;16.27;13.53;;;;;;;;;;4861694;29;20049;-62
2022/10/19 12:44:52;;;;;;;20.15;15.30;;;;;;;;;;4862007;29;20093;-62
2022/10/19 12:47:24;;;;;;;18.48;14.35;;;;;;;;;;4861841;29;20093;-62
2022/10/19 12:49:51;;;;;;;18.20;14.25;;;;;;;;;;4863194;29;20072;-62
2022/10/19 12:52:36;;;;;;;15.80;13.40;;;;;;;;;;4861946;29;20113;-62
2022/10/19 12:55:15;;;;;;;18.85;13.77;;;;;;;;;;4863692;29;20048;-63
2022/10/19 12:57:47;;;;;;;15.35;12.95;;;;;;;;;;4863709;29;20080;-62
2022/10/19 13:00:21;;;;;;;12.82;11.27;;;;;;;;;;4861882;29;20045;-62
2022/10/19 13:02:55;;;;;;;15.45;12.13;;;;;;;;;;4860371;29;20435;-63
2022/10/19 13:05:22;;;;;;;13.02;10.43;;;;;;;;;;4862105;29;20101;-62
2022/10/19 13:07:50;;;;;;;12.55;10.65;;;;;;;;;;4862477;29;20057;-63
2022/10/19 13:10:23;;;;;;;12.52;10.82;;;;;;;;;;4861437;29;20052;-63
2022/10/19 13:12:50;;;;;;;10.23;9.23;;;;;;;;;;4860596;29;20041;-63
2022/10/19 13:15:34;;;;;;;9.93;8.77;;;;;;;;;;4861250;29;20049;-62
2022/10/19 13:18:01;;;;;;;9.60;8.68;;;;;;;;;;4861588;29;20052;-63
2022/10/19 13:20:28;;;;;;;9.15;8.23;;;;;;;;;;4861296;29;20056;-63
2022/10/19 13:23:02;;;;;;;11.38;7.25;;;;;;;;;;4859529;29;20045;-63
2022/10/19 13:25:29;;;;;;;7.78;5.40;;;;;;;;;;4859888;29;20056;-63
2022/10/19 13:28:19;;;;;;;7.45;5.38;;;;;;;;;;4860930;29;20049;-63
2022/10/19 13:30:45;;;;;;;6.25;5.65;;;;;;;;;;4860478;29;20573;-63
2022/10/19 13:33:23;;;;;;;6.43;5.55;;;;;;;;;;4859240;29;20406;-63
2022/10/19 13:36:10;;;;;;;4.85;4.45;;;;;;;;;;4860797;29;20483;-62
2022/10/19 13:38:55;;;;;;;5.72;5.10;;;;;;;;;;4859771;29;20060;-62
2022/10/19 13:41:24;;;;;;;6.78;4.63;;;;;;;;;;4859429;29;20041;-62
2022/10/19 13:43:54;;;;;;;5.90;4.63;;;;;;;;;;4874286;29;20064;-62
2022/10/19 13:46:25;;;;;;;4.93;4.22;;;;;;;;;;4860739;29;20053;-62
2022/10/19 13:49:03;;;;;;;5.05;4.45;;;;;;;;;;4843200;29;20057;-62
2022/10/19 13:51:33;;;;;;;5.13;4.57;;;;;;;;;;4860609;29;20038;-63
2022/10/19 13:54:06;;;;;;;5.78;4.38;;;;;;;;;;4860163;29;20105;-62
2022/10/19 13:56:45;;;;;;;4.10;3.70;;;;;;;;;;4860391;29;20459;-63
2022/10/19 13:59:23;;;;;;;5.22;4.45;;;;;;;;;;4860433;29;20076;-62
2022/10/19 14:02:00;;;;;;;5.97;4.65;;;;;;;;;;4860454;29;20045;-63
2022/10/19 14:04:45;;;;;;;4.95;4.50;;;;;;;;;;4860770;29;20046;-63
2022/10/19 14:07:22;;;;;;;4.85;4.45;;;;;;;;;;4860080;29;20467;-63
2022/10/19 14:10:00;;;;;;;5.35;4.40;;;;;;;;;;4860202;29;20498;-63
2022/10/19 14:12:28;;;;;;;5.75;4.93;;;;;;;;;;4859749;29;20460;-63
2022/10/19 14:14:55;;;;;;;5.22;4.80;;;;;;;;;;4860129;29;20098;-62
2022/10/19 14:17:26;;;;;;;7.57;5.85;;;;;;;;;;4860268;29;20098;-61
2022/10/19 14:19:55;;;;;;;5.13;4.70;;;;;;;;;;4860136;29;20057;-62
2022/10/19 14:22:28;;;;;;;7.10;5.30;;;;;;;;;;4859526;29;20052;-62
2022/10/19 14:25:13;;;;;;;5.78;5.28;;;;;;;;;;4859753;29;20105;-62
2022/10/19 14:27:40;;;;;;;8.30;5.63;;;;;;;;;;4858677;29;20057;-61
2022/10/19 14:30:19;;;;;;;5.35;4.78;;;;;;;;;;4859766;29;20057;-62
2022/10/19 14:32:46;;;;;;;6.13;5.53;;;;;;;;;;4859518;29;20102;-62
2022/10/19 14:35:19;;;;;;;5.85;5.35;;;;;;;;;;4860125;29;20049;-62
2022/10/19 14:37:45;;;;;;;5.60;5.10;;;;;;;;;;4859050;29;20046;-62